createdAt,value
2018-01-11T00:02:10.657Z,25.23
2018-01-11T00:04:38.292Z,26.05
2018-01-11T00:07:06.658Z,28.40
2018-01-11T00:09:34.297Z,27.08
2018-01-11T00:12:01.951Z,25.15
2018-01-11T00:14:29.547Z,26.17
2018-01-11T00:16:57.183Z,25.30
2018-01-11T00:19:24.767Z,26.73
2018-01-11T00:21:52.365Z,26.15
2018-01-11T00:24:20.783Z,26.55
2018-01-11T00:26:48.421Z,26.05
2018-01-11T00:29:16.769Z,25.77
2018-01-11T00:31:44.387Z,25.35
2018-01-11T00:34:12.002Z,24.33
2018-01-11T00:36:39.617Z,25.75
2018-01-11T00:39:07.200Z,25.75
2018-01-11T00:41:34.823Z,24.15
2018-01-11T00:44:03.199Z,22.75
2018-01-11T00:46:30.816Z,22.25
2018-01-11T00:48:58.448Z,23.23
2018-01-11T00:51:26.070Z,22.92
2018-01-11T00:53:53.681Z,24.63
2018-01-11T00:56:22.082Z,21.52
2018-01-11T00:58:49.679Z,22.55
2018-01-11T01:01:18.318Z,23.10
2018-01-11T01:03:45.928Z,23.25
2018-01-11T01:06:13.548Z,22.45
2018-01-11T01:08:41.145Z,21.98
2018-01-11T01:11:08.747Z,22.85
2018-01-11T01:13:36.373Z,23.05
2018-01-11T01:16:03.979Z,22.70
2018-01-11T01:18:31.606Z,22.60
2018-01-11T01:21:00.198Z,22.40
2018-01-11T01:23:27.798Z,23.12
2018-01-11T01:25:55.410Z,24.42
2018-01-11T01:28:23.062Z,24.75
2018-01-11T01:30:51.428Z,26.85
2018-01-11T01:33:19.044Z,25.55
2018-01-11T01:35:46.662Z,23.85
2018-01-11T01:38:14.291Z,24.00
2018-01-11T01:40:41.905Z,23.17
2018-01-11T01:43:10.300Z,24.45
2018-01-11T01:45:38.710Z,26.52
2018-01-11T01:48:06.315Z,26.17
2018-01-11T01:50:33.918Z,27.62
2018-01-11T01:53:02.300Z,27.35
2018-01-11T01:55:30.666Z,29.83
2018-01-11T01:57:59.062Z,26.20
2018-01-11T02:00:27.427Z,26.10
2018-01-11T02:02:56.038Z,25.52
2018-01-11T02:05:23.654Z,25.80
2018-01-11T02:07:51.293Z,25.58
2018-01-11T02:10:19.677Z,26.25
2018-01-11T02:12:47.432Z,26.70
2018-01-11T02:15:15.040Z,28.02
2018-01-11T02:17:42.702Z,27.40
2018-01-11T02:20:10.347Z,26.70
2018-01-11T02:22:37.958Z,25.00
2018-01-11T02:25:05.577Z,24.02
2018-01-11T02:27:33.212Z,25.27
2018-01-11T02:30:00.834Z,25.00
2018-01-11T02:32:28.431Z,26.20
2018-01-11T02:34:56.068Z,26.87
2018-01-11T02:37:23.685Z,29.08
2018-01-11T02:39:51.274Z,25.95
2018-01-11T02:42:18.897Z,28.12
2018-01-11T02:44:47.268Z,24.92
2018-01-11T02:47:14.859Z,23.85
2018-01-11T02:49:42.498Z,25.25
2018-01-11T02:52:10.110Z,24.23
2018-01-11T02:54:37.754Z,26.00
2018-01-11T02:57:06.145Z,23.42
2018-01-11T02:59:33.747Z,27.02
2018-01-11T03:02:01.347Z,26.33
2018-01-11T03:04:28.950Z,27.08
2018-01-11T03:06:56.535Z,28.92
2018-01-11T03:09:24.124Z,27.95
2018-01-11T03:11:51.731Z,28.33
2018-01-11T03:14:20.136Z,26.67
2018-01-11T03:16:47.754Z,28.50
2018-01-11T03:19:15.351Z,25.58
2018-01-11T03:21:43.727Z,27.13
2018-01-11T03:24:12.132Z,27.02
2018-01-11T03:26:39.947Z,28.20
2018-01-11T03:29:08.585Z,30.02
2018-01-11T03:31:36.172Z,28.00
2018-01-11T03:34:03.753Z,27.17
2018-01-11T03:36:31.362Z,26.17
2018-01-11T03:38:58.988Z,25.80
2018-01-11T03:41:26.646Z,22.55
2018-01-11T03:43:54.279Z,25.50
2018-01-11T03:46:22.908Z,24.50
2018-01-11T03:48:50.534Z,26.15
2018-01-11T03:51:18.138Z,24.25
2018-01-11T03:53:46.740Z,23.98
2018-01-11T03:56:14.350Z,25.12
2018-01-11T03:58:42.745Z,25.10
2018-01-11T04:01:10.368Z,22.05
2018-01-11T04:03:37.964Z,20.25
2018-01-11T04:06:06.329Z,18.10
2018-01-11T04:08:33.949Z,16.25
2018-01-11T04:11:01.589Z,17.85
2018-01-11T04:13:29.206Z,19.83
2018-01-11T04:15:56.821Z,21.23
2018-01-11T04:18:24.413Z,19.27
2018-01-11T04:20:52.080Z,23.25
2018-01-11T04:23:19.708Z,20.62
2018-01-11T04:25:48.080Z,24.87
2018-01-11T04:28:16.477Z,22.62
2018-01-11T04:30:44.855Z,23.25
2018-01-11T04:33:13.212Z,25.90
2018-01-11T04:35:40.817Z,23.80
2018-01-11T04:38:08.452Z,26.17
2018-01-11T04:40:36.088Z,25.20
2018-01-11T04:43:03.695Z,24.50
2018-01-11T04:45:32.103Z,23.73
2018-01-11T04:47:59.699Z,22.62
2018-01-11T04:50:27.287Z,22.10
2018-01-11T04:52:54.909Z,19.62
2018-01-11T04:55:22.560Z,19.90
2018-01-11T04:57:50.162Z,21.33
2018-01-11T05:00:17.789Z,19.15
2018-01-11T05:02:46.163Z,16.48
2018-01-11T05:05:14.554Z,15.50
2018-01-11T05:07:42.207Z,17.40
2018-01-11T05:10:10.592Z,15.15
2018-01-11T05:12:39.026Z,14.63
2018-01-11T05:15:06.677Z,13.73
2018-01-11T05:17:34.293Z,14.98
2018-01-11T05:20:01.922Z,16.00
2018-01-11T05:22:29.546Z,15.52
2018-01-11T05:24:57.911Z,18.15
2018-01-11T05:27:25.505Z,22.55
2018-01-11T05:29:53.164Z,20.70
2018-01-11T05:32:21.622Z,21.02
2018-01-11T05:34:49.240Z,17.70
2018-01-11T05:37:16.908Z,15.20
2018-01-11T05:39:44.540Z,14.98
2018-01-11T05:42:12.917Z,17.27
2018-01-11T05:44:41.327Z,17.35
2018-01-11T05:47:08.935Z,18.00
2018-01-11T05:49:36.550Z,13.85
2018-01-11T05:52:04.940Z,15.25
2018-01-11T05:54:32.584Z,14.20
2018-01-11T05:57:00.983Z,17.25
2018-01-11T05:59:28.630Z,17.00
2018-01-11T06:01:56.236Z,17.80
2018-01-11T06:04:23.892Z,16.73
2018-01-11T06:06:51.506Z,15.80
2018-01-11T06:09:19.134Z,15.13
2018-01-11T06:11:46.756Z,13.95
2018-01-11T06:14:14.334Z,15.15
2018-01-11T06:16:43.085Z,14.85
2018-01-11T06:19:10.907Z,13.85
2018-01-11T06:21:38.557Z,15.43
2018-01-11T06:24:06.922Z,14.07
2018-01-11T06:26:35.444Z,15.50
2018-01-11T06:29:03.717Z,15.57
2018-01-11T06:31:31.380Z,15.98
2018-01-11T06:34:01.201Z,16.10
2018-01-11T06:36:31.153Z,15.50
2018-01-11T06:39:11.345Z,16.75
2018-01-11T06:41:40.724Z,15.90
2018-01-11T06:44:11.136Z,14.45
2018-01-11T06:46:40.038Z,13.82
2018-01-11T06:49:07.865Z,13.90
2018-01-11T06:51:39.948Z,13.15
2018-01-11T06:54:09.448Z,16.52
2018-01-11T06:56:40.323Z,16.60
2018-01-11T06:59:08.205Z,15.45
2018-01-11T07:01:35.970Z,16.33
2018-01-11T07:04:03.697Z,16.80
2018-01-11T07:06:31.314Z,17.08
2018-01-11T07:08:59.094Z,16.10
2018-01-11T07:11:26.868Z,16.45
2018-01-11T07:13:55.263Z,16.83
2018-01-11T07:16:22.878Z,15.23
2018-01-11T07:18:51.513Z,15.18
2018-01-11T07:21:19.120Z,15.43
2018-01-11T07:23:46.769Z,14.40
2018-01-11T07:26:15.268Z,14.05
2018-01-11T07:28:42.910Z,15.35
2018-01-11T07:31:10.809Z,13.00
2018-01-11T07:33:38.739Z,14.25
2018-01-11T07:36:07.479Z,13.50
2018-01-11T07:38:35.441Z,14.95
2018-01-11T07:41:03.354Z,13.15
2018-01-11T07:43:31.364Z,13.32
2018-01-11T07:45:59.296Z,13.80
2018-01-11T07:48:27.041Z,14.05
2018-01-11T07:50:54.667Z,12.10
2018-01-11T07:53:22.287Z,13.88
2018-01-11T07:55:49.946Z,13.48
2018-01-11T07:58:17.568Z,12.70
2018-01-11T08:00:45.183Z,13.65
2018-01-11T08:03:12.780Z,12.13
2018-01-11T08:05:40.432Z,12.25
2018-01-11T08:08:08.033Z,12.75
2018-01-11T08:10:35.632Z,12.35
2018-01-11T08:13:03.257Z,12.20
2018-01-11T08:15:30.889Z,12.88
2018-01-11T08:17:58.517Z,13.68
2018-01-11T08:20:27.623Z,12.88
2018-01-11T08:22:55.995Z,10.90
2018-01-11T08:25:24.357Z,11.02
2018-01-11T08:27:51.955Z,10.88
2018-01-11T08:30:21.348Z,11.65
2018-01-11T08:32:49.710Z,11.10
2018-01-11T08:35:17.354Z,10.25
2018-01-11T08:37:45.027Z,10.13
2018-01-11T08:40:12.934Z,11.82
2018-01-11T08:42:41.313Z,10.70
2018-01-11T08:45:09.668Z,11.02
2018-01-11T08:47:37.284Z,10.48
2018-01-11T08:50:05.665Z,9.95
2018-01-11T08:52:35.112Z,10.15
2018-01-11T08:55:02.718Z,10.00
2018-01-11T08:57:30.329Z,9.48
2018-01-11T08:59:58.912Z,9.85
2018-01-11T09:02:26.546Z,9.35
2018-01-11T09:04:54.929Z,9.52
2018-01-11T09:07:23.335Z,8.35
2018-01-11T09:09:50.917Z,8.60
2018-01-11T09:12:18.550Z,9.68
2018-01-11T09:14:46.941Z,7.95
2018-01-11T09:17:14.555Z,9.30
2018-01-11T09:19:42.249Z,8.95
2018-01-11T09:22:09.815Z,8.68
2018-01-11T09:24:37.458Z,10.85
2018-01-11T09:27:05.046Z,8.88
2018-01-11T09:29:32.688Z,9.73
2018-01-11T09:32:00.277Z,9.77
2018-01-11T09:34:27.887Z,11.20
2018-01-11T09:36:55.554Z,10.30
2018-01-11T09:39:23.160Z,11.00
2018-01-11T09:41:50.776Z,10.63
2018-01-11T09:44:18.370Z,13.23
2018-01-11T09:46:45.965Z,12.80
2018-01-11T09:49:13.591Z,12.97
2018-01-11T09:51:41.218Z,14.17
2018-01-11T09:54:08.812Z,12.47
2018-01-11T09:56:36.421Z,15.77
2018-01-11T09:59:04.060Z,17.77
2018-01-11T10:01:31.657Z,16.40
2018-01-11T10:03:59.301Z,16.80
2018-01-11T10:06:26.886Z,18.13
2018-01-11T10:08:54.543Z,15.97
2018-01-11T10:11:22.226Z,16.50
2018-01-11T10:13:49.857Z,16.87
2018-01-11T10:16:17.511Z,15.37
2018-01-11T10:18:45.107Z,15.67
2018-01-11T10:21:12.760Z,14.30
2018-01-11T10:23:40.352Z,13.90
2018-01-11T10:26:07.980Z,15.13
2018-01-11T10:28:35.612Z,13.37
2018-01-11T10:31:03.988Z,13.37
2018-01-11T10:33:32.378Z,14.00
2018-01-11T10:36:02.039Z,13.07
2018-01-11T10:38:29.623Z,13.87
2018-01-11T10:40:57.249Z,13.73
2018-01-11T10:43:24.869Z,15.50
2018-01-11T10:45:52.484Z,16.00
2018-01-11T10:48:20.109Z,16.93
2018-01-11T10:50:48.503Z,19.58
2018-01-11T10:53:16.873Z,19.67
2018-01-11T10:55:44.617Z,19.57
2018-01-11T10:58:12.249Z,21.03
2018-01-11T11:00:45.447Z,19.07
2018-01-11T11:03:13.223Z,20.30
2018-01-11T11:05:41.563Z,20.47
2018-01-11T11:08:09.931Z,19.43
2018-01-11T11:10:37.568Z,17.57
2018-01-11T11:13:05.202Z,17.60
2018-01-11T11:15:32.831Z,17.23
2018-01-11T11:18:00.453Z,18.50
2018-01-11T11:20:28.091Z,18.70
2018-01-11T11:22:56.469Z,18.80
2018-01-11T11:25:25.694Z,18.30
2018-01-11T11:27:53.359Z,16.87
2018-01-11T11:30:20.967Z,17.50
2018-01-11T11:32:48.624Z,18.10
2018-01-11T11:35:16.211Z,16.07
2018-01-11T11:37:44.127Z,17.50
2018-01-11T11:40:11.721Z,16.63
2018-01-11T11:42:39.330Z,17.47
2018-01-11T11:45:07.710Z,17.50
2018-01-11T11:47:35.336Z,16.90
2018-01-11T11:50:03.009Z,17.93
2018-01-11T11:52:30.635Z,18.13
2018-01-11T11:54:58.257Z,16.97
2018-01-11T11:57:25.849Z,17.87
2018-01-11T11:59:54.242Z,17.30
2018-01-11T12:02:22.627Z,18.80
2018-01-11T12:04:51.029Z,17.30
2018-01-11T12:07:18.652Z,19.70
2018-01-11T12:09:46.256Z,17.33
2018-01-11T12:12:13.913Z,19.20
2018-01-11T12:14:41.546Z,17.20
2018-01-11T12:17:09.192Z,17.90
2018-01-11T12:19:36.798Z,17.93
2018-01-11T12:22:05.173Z,18.70
2018-01-11T12:24:32.796Z,17.20
2018-01-11T12:27:00.439Z,16.33
2018-01-11T12:29:28.033Z,16.37
2018-01-11T12:31:55.729Z,15.90
2018-01-11T12:34:23.348Z,16.77
2018-01-11T12:36:51.005Z,16.30
2018-01-11T12:39:18.640Z,15.87
2018-01-11T12:41:47.010Z,15.00
2018-01-11T12:44:14.628Z,14.80
2018-01-11T12:46:42.223Z,17.43
2018-01-11T12:49:09.834Z,17.67
2018-01-11T12:51:38.239Z,17.93
2018-01-11T12:54:05.885Z,16.50
2018-01-11T12:56:34.266Z,17.47
2018-01-11T12:59:02.628Z,18.80
2018-01-11T13:01:30.242Z,17.67
2018-01-11T13:03:57.857Z,18.57
2018-01-11T13:06:25.476Z,17.10
2018-01-11T13:08:53.110Z,18.23
2018-01-11T13:11:21.490Z,19.03
2018-01-11T13:13:49.887Z,19.17
2018-01-11T13:16:18.232Z,17.67
2018-01-11T13:18:45.873Z,19.87
2018-01-11T13:21:13.913Z,18.70
2018-01-11T13:23:41.629Z,19.77
2018-01-11T13:26:09.256Z,19.17
2018-01-11T13:28:36.914Z,18.87
2018-01-11T13:31:05.279Z,19.87
2018-01-11T13:33:33.664Z,19.30
2018-01-11T13:36:02.064Z,18.27
2018-01-11T13:38:29.673Z,20.30
2018-01-11T13:40:57.289Z,20.10
2018-01-11T13:43:25.675Z,20.80
2018-01-11T13:45:53.322Z,19.43
2018-01-11T13:48:20.936Z,21.87
2018-01-11T13:50:48.541Z,21.27
2018-01-11T13:53:16.180Z,19.20
2018-01-11T13:55:43.840Z,20.67
2018-01-11T13:58:11.483Z,20.43
2018-01-11T14:00:39.395Z,21.50
2018-01-11T14:03:07.282Z,22.30
2018-01-11T14:05:35.867Z,22.60
2018-01-11T14:08:03.638Z,21.55
2018-01-11T14:10:31.475Z,21.13
2018-01-11T14:12:59.444Z,22.70
2018-01-11T14:15:27.078Z,23.25
2018-01-11T14:17:54.732Z,21.20
2018-01-11T14:20:22.355Z,21.73
2018-01-11T14:22:49.978Z,23.80
2018-01-11T14:25:18.391Z,23.63
2018-01-11T14:27:45.996Z,23.97
2018-01-11T14:30:13.613Z,24.50
2018-01-11T14:32:41.249Z,25.90
2018-01-11T14:35:09.646Z,24.80
2018-01-11T14:37:38.002Z,22.93
2018-01-11T14:40:06.401Z,24.10
2018-01-11T14:42:34.018Z,23.47
2018-01-11T14:45:01.948Z,24.30
2018-01-11T14:47:29.634Z,24.33
2018-01-11T14:49:57.309Z,22.83
2018-01-11T14:52:25.054Z,24.42
2018-01-11T14:54:55.324Z,22.70
2018-01-11T14:57:24.954Z,24.25
2018-01-11T14:59:53.655Z,23.55
2018-01-11T15:02:22.385Z,25.90
2018-01-11T15:04:50.024Z,24.58
2018-01-11T15:07:18.470Z,25.52
2018-01-11T15:09:52.089Z,25.88
2018-01-11T15:12:21.890Z,26.42
2018-01-11T15:14:50.949Z,28.55
2018-01-11T15:17:23.507Z,29.75
2018-01-11T15:19:51.865Z,28.08
2018-01-11T15:22:21.405Z,32.45
2018-01-11T15:24:50.546Z,30.08
2018-01-11T15:27:24.464Z,30.08
2018-01-11T15:29:54.984Z,32.08
2018-01-11T15:32:23.278Z,31.90
2018-01-11T15:34:53.635Z,30.80
2018-01-11T15:37:23.900Z,31.75
2018-01-11T15:39:55.589Z,33.55
2018-01-11T15:42:25.516Z,32.53
2018-01-11T15:44:55.550Z,31.70
2018-01-11T15:47:23.528Z,32.70
2018-01-11T15:49:51.617Z,32.58
2018-01-11T15:52:21.723Z,33.60
2018-01-11T15:54:52.160Z,33.00
2018-01-11T15:57:21.044Z,31.80
2018-01-11T15:59:54.731Z,34.28
2018-01-11T16:02:24.382Z,32.00
2018-01-11T16:04:54.681Z,35.13
2018-01-11T16:07:25.847Z,36.13
2018-01-11T16:09:59.074Z,35.20
2018-01-11T16:12:26.949Z,35.85
2018-01-11T16:14:54.644Z,35.95
2018-01-11T16:17:26.926Z,37.17
2018-01-11T16:19:56.503Z,36.55
2018-01-11T16:22:24.458Z,38.78
2018-01-11T16:24:53.844Z,35.05
2018-01-11T16:27:23.040Z,33.22
2018-01-11T16:29:51.102Z,35.22
2018-01-11T16:32:20.693Z,34.38
2018-01-11T16:34:48.456Z,35.90
2018-01-11T16:37:16.078Z,38.28
2018-01-11T16:39:43.715Z,36.63
2018-01-11T16:42:12.186Z,35.38
2018-01-11T16:44:39.906Z,35.47
2018-01-11T16:47:08.710Z,36.40
2018-01-11T16:49:37.078Z,35.35
2018-01-11T16:52:11.610Z,36.83
2018-01-11T16:54:39.378Z,36.67
2018-01-11T16:57:07.973Z,34.55
2018-01-11T16:59:36.345Z,35.65
2018-01-11T17:02:04.734Z,37.80
2018-01-11T17:04:33.530Z,35.85
2018-01-11T17:07:01.885Z,38.47
2018-01-11T17:09:29.524Z,37.22
2018-01-11T17:11:57.137Z,39.17
2018-01-11T17:14:26.677Z,37.05
2018-01-11T17:16:54.297Z,38.95
2018-01-11T17:19:23.001Z,35.78
2018-01-11T17:21:51.444Z,34.45
2018-01-11T17:24:19.042Z,36.90
2018-01-11T17:26:46.806Z,35.10
2018-01-11T17:29:14.428Z,33.50
2018-01-11T17:31:43.074Z,36.83
2018-01-11T17:34:11.790Z,41.13
2018-01-11T17:36:39.448Z,39.70
2018-01-11T17:39:07.822Z,38.60
2018-01-11T17:41:36.211Z,36.10
2018-01-11T17:44:04.586Z,39.83
2018-01-11T17:46:32.258Z,38.20
2018-01-11T17:49:01.277Z,38.30
2018-01-11T17:51:28.892Z,39.65
2018-01-11T17:53:56.535Z,34.00
2018-01-11T17:56:24.152Z,33.38
2018-01-11T17:58:52.542Z,33.83
2018-01-11T18:01:20.948Z,34.80
2018-01-11T18:03:48.636Z,35.22
2018-01-11T18:06:16.290Z,36.20
2018-01-11T18:08:43.920Z,37.65
2018-01-11T18:11:11.608Z,32.90
2018-01-11T18:13:40.188Z,35.22
2018-01-11T18:16:08.071Z,35.45
2018-01-11T18:18:36.526Z,35.28
2018-01-11T18:21:04.478Z,37.50
2018-01-11T18:23:32.293Z,35.85
2018-01-11T18:26:00.762Z,36.60
2018-01-11T18:28:29.146Z,37.70
2018-01-11T18:30:57.548Z,35.03
2018-01-11T18:33:25.252Z,39.35
2018-01-11T18:35:52.867Z,36.72
2018-01-11T18:38:21.276Z,39.15
2018-01-11T18:40:48.875Z,36.03
2018-01-11T18:43:16.507Z,32.45
2018-01-11T18:45:44.126Z,33.55
2018-01-11T18:48:11.746Z,34.05
2018-01-11T18:50:40.376Z,35.03
2018-01-11T18:53:07.991Z,30.92
2018-01-11T18:55:35.643Z,34.53
2018-01-11T18:58:04.034Z,33.03
2018-01-11T19:00:31.664Z,33.22
2018-01-11T19:02:59.599Z,30.88
2018-01-11T19:05:27.242Z,29.08
2018-01-11T19:07:54.875Z,32.00
2018-01-11T19:10:22.486Z,33.15
2018-01-11T19:12:50.338Z,32.10
2018-01-11T19:15:17.942Z,29.98
2018-01-11T19:17:45.593Z,31.45
2018-01-11T19:20:13.340Z,30.17
2018-01-11T19:22:41.296Z,30.30
2018-01-11T19:25:08.922Z,30.98
2018-01-11T19:27:36.551Z,29.95
2018-01-11T19:30:04.380Z,29.92
2018-01-11T19:32:32.012Z,38.72
2018-01-11T19:34:59.692Z,34.88
2018-01-11T19:37:27.299Z,35.17
2018-01-11T19:39:54.954Z,32.47
2018-01-11T19:42:22.595Z,40.28
2018-01-11T19:44:50.661Z,37.00
2018-01-11T19:47:18.297Z,32.35
2018-01-11T19:49:45.962Z,37.72
2018-01-11T19:52:14.762Z,37.85
2018-01-11T19:54:42.392Z,31.75
2018-01-11T19:57:10.023Z,26.37
2018-01-11T19:59:37.632Z,31.75
2018-01-11T20:02:07.322Z,34.55
2018-01-11T20:04:34.944Z,33.30
2018-01-11T20:07:02.588Z,30.80
2018-01-11T20:09:30.212Z,39.05
2018-01-11T20:11:59.302Z,35.55
2018-01-11T20:14:28.448Z,34.38
2018-01-11T20:16:59.458Z,35.35
2018-01-11T20:19:27.881Z,28.25
2018-01-11T20:21:55.539Z,32.13
2018-01-11T20:24:23.170Z,28.15
2018-01-11T20:26:50.752Z,31.85
2018-01-11T20:29:18.395Z,29.15
2018-01-11T20:31:46.397Z,32.33
2018-01-11T20:34:14.384Z,34.03
2018-01-11T20:36:42.878Z,31.73
2018-01-11T20:39:11.517Z,34.75
2018-01-11T20:41:39.112Z,34.35
2018-01-11T20:44:06.734Z,34.38
2018-01-11T20:46:34.639Z,30.10
2018-01-11T20:49:02.510Z,33.03
2018-01-11T20:51:31.161Z,34.40
2018-01-11T20:53:58.781Z,33.30
2018-01-11T20:56:26.450Z,30.27
2018-01-11T20:58:54.141Z,30.50
2018-01-11T21:01:21.867Z,31.48
2018-01-11T21:03:52.798Z,33.70
2018-01-11T21:06:20.564Z,27.40
2018-01-11T21:08:48.539Z,31.12
2018-01-11T21:11:17.913Z,26.37
2018-01-11T21:13:45.577Z,25.45
2018-01-11T21:25:58.762Z,26.27
2018-01-11T21:28:39.832Z,25.15
2018-01-11T21:38:06.841Z,26.12
2018-01-11T21:40:34.698Z,21.30
2018-01-11T21:43:02.455Z,26.05
2018-01-11T21:45:31.504Z,24.30
2018-01-11T21:47:59.836Z,23.92
2018-01-11T21:50:30.288Z,24.37
2018-01-11T21:52:58.476Z,23.17
2018-01-11T21:55:31.114Z,23.30
2018-01-11T21:57:59.079Z,21.90
2018-01-11T22:00:26.664Z,21.15
2018-01-11T22:02:55.074Z,20.48
2018-01-11T22:05:30.508Z,22.08
2018-01-11T22:08:01.158Z,21.98
2018-01-11T22:10:32.556Z,22.95
2018-01-11T22:13:00.218Z,22.55
2018-01-11T22:15:28.606Z,22.40
2018-01-11T22:17:56.972Z,23.98
2018-01-11T22:20:25.340Z,24.95
2018-01-11T22:22:52.973Z,23.80
2018-01-11T22:25:20.632Z,24.40
2018-01-11T22:27:48.260Z,24.37
2018-01-11T22:30:16.652Z,24.15
2018-01-11T22:32:45.028Z,22.80
2018-01-11T22:35:13.420Z,25.67
2018-01-11T22:37:41.795Z,24.85
2018-01-11T22:40:10.181Z,24.45
2018-01-11T22:42:38.551Z,23.95
2018-01-11T22:45:06.941Z,23.00
2018-01-11T22:47:35.436Z,22.23
2018-01-11T22:50:03.116Z,24.10
2018-01-11T22:52:30.752Z,24.30
2018-01-11T22:54:59.408Z,26.60
2018-01-11T22:57:27.069Z,25.15
2018-01-11T22:59:54.653Z,26.12
2018-01-11T23:02:22.320Z,28.42
2018-01-11T23:04:49.913Z,25.35
2018-01-11T23:07:18.265Z,23.17
2018-01-11T23:09:45.891Z,25.50
2018-01-11T23:12:13.524Z,25.08
2018-01-11T23:14:41.926Z,24.23
2018-01-11T23:17:09.510Z,26.58
2018-01-11T23:19:37.142Z,24.40
2018-01-11T23:22:05.538Z,25.58
2018-01-11T23:24:33.966Z,28.50
2018-01-11T23:27:01.599Z,26.75
2018-01-11T23:29:29.221Z,24.87
2018-01-11T23:31:56.824Z,28.25
2018-01-11T23:34:25.182Z,23.77
2018-01-11T23:36:52.778Z,27.02
2018-01-11T23:39:21.200Z,29.67
2018-01-11T23:41:48.846Z,28.20
2018-01-11T23:44:16.459Z,27.42
2018-01-11T23:46:44.094Z,26.92
2018-01-11T23:49:11.706Z,29.05
2018-01-11T23:51:39.346Z,25.95
2018-01-11T23:54:06.952Z,29.10
2018-01-11T23:56:35.324Z,26.10
2018-01-11T23:59:03.739Z,27.50
